EmailTwitter


Observations de surface / Québec / CYUL (71627)

Régions: Québec | Canada | États-Unis | Europe | France | UK | Ailleurs
Station
Affichage
Infos & localisation pour CYUL (71627) | Aide pour décoder les METARs

Observations prises le 2020-11-01 à 02H00 UTC à MONTREAL INTL A, QB (CYUL)

Etat du ciel: dégagé.

Température: 1.0 Celsius

Point de rosée: -5.0 Celsius

Humidité relative: 64%

Facteur vent: -3.

Vents: Sud à 17 km/h ou 9 noeuds.

Pression au niveau moyen de la mer: 102.52 kilopascals.

Calage altimétrique: 102.47 kilopascals ou 30.26 pouces de mercure.

Visibilité horizontale: 15.00 milles terrestres ou 24.00 kilomètres.

Observation METAR:

CYUL 010200Z 18009KT 15SM SKC 01/M05 A3026 RMK SLP252=